createdAt,value
2018-09-27T00:01:59.337Z,12.83
2018-09-27T00:04:28.239Z,12.82
2018-09-27T00:06:56.954Z,12.82
2018-09-27T00:09:25.618Z,12.80
2018-09-27T00:11:54.350Z,12.80
2018-09-27T00:14:23.175Z,12.79
2018-09-27T00:16:51.956Z,12.78
2018-09-27T00:19:20.657Z,12.77
2018-09-27T00:21:49.986Z,12.76
2018-09-27T00:24:18.728Z,12.74
2018-09-27T00:26:47.452Z,12.72
2018-09-27T00:29:16.694Z,12.69
2018-09-27T00:31:45.368Z,12.67
2018-09-27T00:34:14.170Z,12.66
2018-09-27T00:36:42.891Z,12.64
2018-09-27T00:39:12.938Z,12.62
2018-09-27T00:41:41.640Z,12.59
2018-09-27T00:44:10.424Z,12.57
2018-09-27T00:46:39.099Z,12.53
2018-09-27T00:49:07.883Z,12.51
2018-09-27T00:51:36.630Z,12.48
2018-09-27T00:54:06.051Z,12.45
2018-09-27T00:56:34.879Z,12.42
2018-09-27T00:59:03.572Z,12.41
2018-09-27T01:01:32.258Z,12.39
2018-09-27T01:04:00.965Z,12.38
2018-09-27T01:06:29.981Z,12.36
2018-09-27T01:08:58.655Z,12.35
2018-09-27T01:11:27.387Z,12.33
2018-09-27T01:13:56.055Z,12.31
2018-09-27T01:16:24.802Z,12.30
2018-09-27T01:18:53.472Z,12.29
2018-09-27T01:21:22.281Z,12.28
2018-09-27T01:23:51.000Z,12.27
2018-09-27T01:26:19.758Z,12.25
2018-09-27T01:28:48.419Z,12.24
2018-09-27T01:31:17.299Z,12.24
2018-09-27T01:33:45.977Z,12.23
2018-09-27T01:36:14.691Z,12.21
2018-09-27T01:38:43.363Z,12.19
2018-09-27T01:41:12.157Z,12.19
2018-09-27T01:43:40.887Z,12.18
2018-09-27T01:46:09.862Z,12.16
2018-09-27T01:48:39.378Z,12.16
2018-09-27T01:51:08.135Z,12.14
2018-09-27T01:53:39.028Z,12.13
2018-09-27T01:56:07.726Z,12.12
2018-09-27T01:58:36.407Z,12.12
2018-09-27T02:01:05.125Z,12.11
2018-09-27T02:03:33.984Z,12.09
2018-09-27T02:06:03.159Z,12.08
2018-09-27T02:08:31.902Z,12.06
2018-09-27T02:11:00.754Z,12.05
2018-09-27T02:13:30.265Z,12.03
2018-09-27T02:15:58.973Z,12.03
2018-09-27T02:18:27.714Z,12.03
2018-09-27T02:20:56.489Z,12.02
2018-09-27T02:23:25.190Z,12.01
2018-09-27T02:25:53.920Z,12.01
2018-09-27T02:28:22.764Z,11.99
2018-09-27T02:30:51.471Z,11.98
2018-09-27T02:33:20.373Z,11.97
2018-09-27T02:35:49.083Z,11.95
2018-09-27T02:38:19.136Z,11.94
2018-09-27T02:40:47.942Z,11.94
2018-09-27T02:43:16.751Z,11.93
2018-09-27T02:45:45.555Z,11.94
2018-09-27T02:48:14.600Z,11.94
2018-09-27T02:50:43.608Z,11.95
2018-09-27T02:53:12.960Z,11.95
2018-09-27T02:55:41.755Z,11.96
2018-09-27T02:58:10.442Z,11.97
2018-09-27T03:00:39.160Z,11.96
2018-09-27T03:03:08.244Z,11.96
2018-09-27T03:05:37.013Z,11.95
2018-09-27T03:08:06.148Z,11.94
2018-09-27T03:10:34.835Z,11.93
2018-09-27T03:13:03.666Z,11.93
2018-09-27T03:15:32.364Z,11.93
2018-09-27T03:18:01.368Z,11.91
2018-09-27T03:20:30.460Z,11.90
2018-09-27T03:22:59.246Z,11.90
2018-09-27T03:25:28.091Z,11.91
2018-09-27T03:27:56.778Z,11.89
2018-09-27T03:30:25.557Z,11.88
2018-09-27T03:38:03.139Z,11.86
2018-09-27T03:40:31.844Z,11.85
2018-09-27T03:43:01.131Z,11.85
2018-09-27T03:45:29.885Z,11.83
2018-09-27T03:47:58.968Z,11.82
2018-09-27T03:50:28.047Z,11.82
2018-09-27T03:52:56.940Z,11.81
2018-09-27T03:55:25.679Z,11.81
2018-09-27T03:57:54.520Z,11.81
2018-09-27T04:00:23.204Z,11.82
2018-09-27T04:02:52.161Z,11.81
2018-09-27T04:05:21.304Z,11.82
2018-09-27T04:07:50.288Z,11.82
2018-09-27T04:10:19.347Z,11.81
2018-09-27T04:12:48.390Z,11.81
2018-09-27T04:15:17.046Z,11.82
2018-09-27T04:17:46.022Z,11.82
2018-09-27T04:20:14.864Z,11.81
2018-09-27T04:22:44.691Z,11.81
2018-09-27T04:25:13.414Z,11.80
2018-09-27T04:27:42.301Z,11.80
2018-09-27T04:30:11.184Z,11.79
2018-09-27T04:32:40.222Z,11.79
2018-09-27T04:35:08.902Z,11.79
2018-09-27T04:37:37.982Z,11.78
2018-09-27T04:40:07.370Z,11.78
2018-09-27T04:42:36.141Z,11.76
2018-09-27T04:45:05.427Z,11.75
2018-09-27T04:47:34.397Z,11.75
2018-09-27T04:50:03.133Z,11.72
2018-09-27T04:52:31.961Z,11.71
2018-09-27T04:55:00.623Z,11.70
2018-09-27T04:57:29.829Z,11.70
2018-09-27T04:59:59.002Z,11.70
2018-09-27T05:02:28.173Z,11.69
2018-09-27T05:04:56.928Z,11.68
2018-09-27T05:07:25.935Z,11.68
2018-09-27T05:09:55.030Z,11.68
2018-09-27T05:12:24.700Z,11.67
2018-09-27T05:14:54.158Z,11.69
2018-09-27T05:17:23.626Z,11.71
2018-09-27T05:19:52.383Z,11.72
2018-09-27T05:22:21.470Z,11.75
2018-09-27T05:24:50.445Z,11.77
2018-09-27T05:27:19.246Z,11.80
2018-09-27T05:29:48.208Z,11.82
2018-09-27T05:32:17.292Z,11.85
2018-09-27T05:34:46.126Z,11.88
2018-09-27T05:37:14.848Z,11.91
2018-09-27T05:39:43.659Z,11.92
2018-09-27T05:42:13.551Z,11.95
2018-09-27T05:44:42.545Z,11.99
2018-09-27T05:47:11.773Z,12.04
2018-09-27T05:49:40.478Z,12.08
2018-09-27T05:52:09.488Z,12.12
2018-09-27T05:54:38.202Z,12.16
2018-09-27T05:57:06.977Z,12.22
2018-09-27T05:59:35.714Z,12.29
2018-09-27T06:02:04.472Z,12.37
2018-09-27T06:04:33.709Z,12.45
2018-09-27T06:07:02.462Z,12.48
2018-09-27T06:09:31.191Z,12.52
2018-09-27T06:12:00.041Z,12.55
2018-09-27T06:14:28.842Z,12.60
2018-09-27T06:16:57.609Z,12.64
2018-09-27T06:19:26.592Z,12.67
2018-09-27T06:21:55.516Z,12.68
2018-09-27T06:24:24.346Z,12.70
2018-09-27T06:26:53.029Z,12.72
2018-09-27T06:29:21.754Z,12.72
2018-09-27T06:31:50.457Z,12.73
2018-09-27T06:34:19.194Z,12.74
2018-09-27T06:36:48.057Z,12.75
2018-09-27T06:39:16.840Z,12.77
2018-09-27T06:41:45.597Z,12.78
2018-09-27T06:44:14.346Z,12.79
2018-09-27T06:46:43.413Z,12.82
2018-09-27T06:49:13.519Z,12.83
2018-09-27T06:51:42.252Z,12.88
2018-09-27T06:54:10.927Z,12.90
2018-09-27T06:56:39.664Z,12.94
2018-09-27T06:59:09.011Z,12.94
2018-09-27T07:01:37.865Z,12.98
2018-09-27T07:04:06.628Z,12.99
2018-09-27T07:06:36.145Z,13.02
2018-09-27T07:09:07.249Z,13.06
2018-09-27T07:11:36.050Z,13.09
2018-09-27T07:14:04.912Z,13.13
2018-09-27T07:16:33.705Z,13.15
2018-09-27T07:19:02.555Z,13.18
2018-09-27T07:21:31.467Z,13.18
2018-09-27T07:24:00.688Z,13.21
2018-09-27T07:26:29.681Z,13.25
2018-09-27T07:28:58.839Z,13.29
2018-09-27T07:31:27.721Z,13.33
2018-09-27T07:33:56.469Z,13.37
2018-09-27T07:36:25.258Z,13.41
2018-09-27T07:38:54.218Z,13.46
2018-09-27T07:41:22.958Z,13.53
2018-09-27T07:43:51.738Z,13.58
2018-09-27T07:46:20.522Z,13.62
2018-09-27T07:48:49.917Z,13.68
2018-09-27T07:51:18.858Z,13.73
2018-09-27T07:53:47.685Z,13.78
2018-09-27T07:56:16.518Z,13.83
2018-09-27T07:58:45.690Z,13.90
2018-09-27T08:01:14.495Z,14.00
2018-09-27T08:03:43.321Z,14.13
2018-09-27T08:06:12.150Z,14.27
2018-09-27T08:08:41.156Z,14.39
2018-09-27T08:11:10.707Z,14.51
2018-09-27T08:13:40.549Z,14.58
2018-09-27T08:16:09.467Z,14.66
2018-09-27T08:18:39.109Z,14.72
2018-09-27T08:21:08.881Z,14.76
2018-09-27T08:23:37.848Z,14.81
2018-09-27T08:26:06.857Z,14.87
2018-09-27T08:28:35.576Z,14.94
2018-09-27T08:31:04.654Z,15.02
2018-09-27T08:33:33.487Z,15.09
2018-09-27T08:36:02.266Z,15.17
2018-09-27T08:38:31.025Z,15.24
2018-09-27T08:41:00.147Z,15.32
2018-09-27T08:43:29.008Z,15.42
2018-09-27T08:45:58.266Z,15.52
2018-09-27T08:48:28.100Z,15.61
2018-09-27T08:50:57.261Z,15.71
2018-09-27T08:53:27.234Z,15.84
2018-09-27T08:55:56.481Z,15.97
2018-09-27T08:58:25.432Z,16.10
2018-09-27T09:00:54.809Z,16.21
2018-09-27T09:03:23.901Z,16.31
2018-09-27T09:05:53.299Z,16.41
2018-09-27T09:08:22.869Z,16.49
2018-09-27T09:10:52.256Z,16.57
2018-09-27T09:13:21.302Z,16.68
2018-09-27T09:15:50.679Z,16.78
2018-09-27T09:18:19.709Z,16.87
2018-09-27T09:20:48.760Z,16.99
2018-09-27T09:23:17.708Z,17.12
2018-09-27T09:25:47.132Z,17.23
2018-09-27T09:28:16.194Z,17.33
2018-09-27T09:30:45.373Z,17.45
2018-09-27T09:33:14.364Z,17.55
2018-09-27T09:35:43.654Z,17.64
2018-09-27T09:38:12.916Z,17.77
2018-09-27T09:40:43.374Z,17.88
2018-09-27T09:43:12.563Z,18.00
2018-09-27T09:45:41.679Z,18.12
2018-09-27T09:48:10.741Z,18.24
2018-09-27T09:50:39.986Z,18.37
2018-09-27T09:53:09.011Z,18.51
2018-09-27T09:55:38.291Z,18.65
2018-09-27T09:58:07.620Z,18.81
2018-09-27T10:00:38.019Z,18.96
2018-09-27T10:03:08.612Z,19.11
2018-09-27T10:05:37.871Z,19.25
2018-09-27T10:08:06.910Z,19.42
2018-09-27T10:10:37.260Z,19.56
2018-09-27T10:13:07.003Z,19.70
2018-09-27T10:15:36.152Z,19.81
2018-09-27T10:18:05.454Z,19.93
2018-09-27T10:20:34.471Z,20.05
2018-09-27T10:23:03.623Z,20.16
2018-09-27T10:25:32.939Z,20.26
2018-09-27T10:28:02.090Z,20.34
2018-09-27T10:30:31.359Z,20.43
2018-09-27T10:33:00.281Z,20.54
2018-09-27T10:35:29.533Z,20.68
2018-09-27T10:37:58.581Z,20.78
2018-09-27T10:40:28.547Z,20.85
2018-09-27T10:42:58.023Z,20.95
2018-09-27T10:45:27.097Z,21.06
2018-09-27T10:47:56.777Z,21.19
2018-09-27T10:50:26.771Z,21.29
2018-09-27T10:52:56.022Z,21.43
2018-09-27T10:55:25.123Z,21.58
2018-09-27T10:57:54.631Z,21.68
2018-09-27T11:00:24.283Z,21.77
2018-09-27T11:02:53.782Z,21.89
2018-09-27T11:05:22.866Z,22.01
2018-09-27T11:07:52.569Z,22.12
2018-09-27T11:10:21.796Z,22.21
2018-09-27T11:12:50.967Z,22.33
2018-09-27T11:15:21.195Z,22.46
2018-09-27T11:17:50.384Z,22.56
2018-09-27T11:20:20.282Z,22.65
2018-09-27T11:22:49.378Z,22.69
2018-09-27T11:25:18.469Z,22.70
2018-09-27T11:27:48.355Z,22.73
2018-09-27T11:30:22.533Z,22.77
2018-09-27T11:32:51.740Z,22.84
2018-09-27T11:35:20.969Z,22.93
2018-09-27T11:37:50.128Z,22.99
2018-09-27T11:40:20.473Z,23.05
2018-09-27T11:42:50.398Z,23.10
2018-09-27T11:45:19.697Z,23.16
2018-09-27T11:47:49.140Z,23.29
2018-09-27T11:50:18.256Z,23.40
2018-09-27T11:52:47.679Z,23.54
2018-09-27T11:55:17.254Z,23.60
2018-09-27T11:57:46.594Z,23.62
2018-09-27T12:00:16.075Z,23.62
2018-09-27T12:02:45.807Z,23.62
2018-09-27T12:05:14.921Z,23.64
2018-09-27T12:07:44.942Z,23.68
2018-09-27T12:10:14.026Z,23.74
2018-09-27T12:12:43.431Z,23.79
2018-09-27T12:15:14.043Z,23.86
2018-09-27T12:17:43.164Z,23.94
2018-09-27T12:20:12.666Z,24.00
2018-09-27T12:22:41.910Z,24.10
2018-09-27T12:25:11.198Z,24.23
2018-09-27T12:27:40.491Z,24.34
2018-09-27T12:30:13.135Z,24.42
2018-09-27T12:32:42.247Z,24.48
2018-09-27T12:35:12.187Z,24.58
2018-09-27T12:37:41.618Z,24.67
2018-09-27T12:40:10.880Z,24.74
2018-09-27T12:42:40.150Z,24.82
2018-09-27T12:45:09.594Z,24.91
2018-09-27T12:47:39.282Z,25.00
2018-09-27T12:50:09.395Z,25.05
2018-09-27T12:52:38.653Z,25.10
2018-09-27T12:55:08.280Z,25.16
2018-09-27T12:57:37.533Z,25.21
2018-09-27T13:00:06.729Z,25.22
2018-09-27T13:02:36.091Z,25.26
2018-09-27T13:05:05.627Z,25.31
2018-09-27T13:07:34.871Z,25.35
2018-09-27T13:10:04.202Z,25.42
2018-09-27T13:12:34.372Z,25.49
2018-09-27T13:15:03.935Z,25.60
2018-09-27T13:17:33.661Z,25.72
2018-09-27T13:20:03.115Z,25.83
2018-09-27T13:22:32.276Z,25.92
2018-09-27T13:25:01.645Z,26.02
2018-09-27T13:27:30.725Z,26.12
2018-09-27T13:29:59.938Z,26.22
2018-09-27T13:32:29.191Z,26.31
2018-09-27T13:34:58.290Z,26.40
2018-09-27T13:37:27.365Z,26.50
2018-09-27T13:39:56.856Z,26.61
2018-09-27T13:42:26.483Z,26.71
2018-09-27T13:44:56.094Z,26.81
2018-09-27T13:47:25.411Z,26.86
2018-09-27T13:49:54.567Z,26.86
2018-09-27T13:52:24.034Z,26.85
2018-09-27T13:54:52.996Z,26.86
2018-09-27T13:57:22.402Z,26.89
2018-09-27T13:59:51.782Z,26.92
2018-09-27T14:02:20.880Z,26.96
2018-09-27T14:04:51.063Z,26.99
2018-09-27T14:07:20.406Z,27.02
2018-09-27T14:09:49.645Z,27.09
2018-09-27T14:12:18.654Z,27.16
2018-09-27T14:14:48.248Z,27.22
2018-09-27T14:17:20.587Z,27.25
2018-09-27T14:19:49.736Z,27.26
2018-09-27T14:22:18.836Z,27.27
2018-09-27T14:24:48.315Z,27.27
2018-09-27T14:27:17.520Z,27.34
2018-09-27T14:29:47.099Z,27.37
2018-09-27T14:32:16.289Z,27.40
2018-09-27T14:34:46.078Z,27.45
2018-09-27T14:37:15.145Z,27.51
2018-09-27T14:39:44.343Z,27.55
2018-09-27T14:42:13.464Z,27.58
2018-09-27T14:44:42.623Z,27.60
2018-09-27T14:47:12.175Z,27.61
2018-09-27T14:49:41.399Z,27.61
2018-09-27T14:52:10.967Z,27.60
2018-09-27T14:54:40.343Z,27.59
2018-09-27T14:57:09.785Z,27.54
2018-09-27T14:59:39.373Z,27.47
2018-09-27T15:02:09.165Z,27.44
2018-09-27T15:04:38.379Z,27.36
2018-09-27T15:07:07.593Z,27.23
2018-09-27T15:09:36.707Z,27.07
2018-09-27T15:12:05.878Z,26.93
2018-09-27T15:14:34.946Z,26.80
2018-09-27T15:17:04.223Z,26.68
2018-09-27T15:19:33.509Z,26.56
2018-09-27T15:22:02.726Z,26.42
2018-09-27T15:24:31.789Z,26.28
2018-09-27T15:27:01.102Z,26.14
2018-09-27T15:29:30.236Z,26.02
2018-09-27T15:31:59.304Z,25.88
2018-09-27T15:34:28.614Z,25.73
2018-09-27T15:36:57.812Z,25.61
2018-09-27T15:39:27.065Z,25.46
2018-09-27T15:41:56.183Z,25.34
2018-09-27T15:44:25.183Z,25.19
2018-09-27T15:46:54.715Z,25.08
2018-09-27T15:49:23.802Z,24.97
2018-09-27T15:51:52.797Z,24.82
2018-09-27T15:54:21.928Z,24.69
2018-09-27T15:56:51.108Z,24.60
2018-09-27T15:59:20.153Z,24.49
2018-09-27T16:01:49.332Z,24.39
2018-09-27T16:04:18.435Z,24.30
2018-09-27T16:06:47.592Z,24.20
2018-09-27T16:09:16.686Z,24.09
2018-09-27T16:11:45.959Z,23.97
2018-09-27T16:14:15.334Z,23.86
2018-09-27T16:16:44.478Z,23.76
2018-09-27T16:19:13.615Z,23.66
2018-09-27T16:21:42.907Z,23.57
2018-09-27T16:24:12.211Z,23.47
2018-09-27T16:26:42.220Z,23.39
2018-09-27T16:29:11.549Z,23.29
2018-09-27T16:31:40.504Z,23.18
2018-09-27T16:34:09.917Z,23.10
2018-09-27T16:36:38.895Z,23.00
2018-09-27T16:39:09.455Z,22.92
2018-09-27T16:41:39.287Z,22.84
2018-09-27T16:44:08.666Z,22.75
2018-09-27T16:46:38.100Z,22.69
2018-09-27T16:49:07.406Z,22.61
2018-09-27T16:51:36.725Z,22.53
2018-09-27T16:54:06.053Z,22.46
2018-09-27T16:56:35.188Z,22.39
2018-09-27T16:59:04.401Z,22.32
2018-09-27T17:01:33.407Z,22.23
2018-09-27T17:04:02.665Z,22.16
2018-09-27T17:06:32.012Z,22.08
2018-09-27T17:09:01.165Z,22.05
2018-09-27T17:11:30.409Z,22.00
2018-09-27T17:13:59.837Z,21.96
2018-09-27T17:16:28.961Z,21.92
2018-09-27T17:18:58.285Z,21.88
2018-09-27T17:21:27.578Z,21.86
2018-09-27T17:23:56.906Z,21.86
2018-09-27T17:26:25.991Z,21.83
2018-09-27T17:28:55.160Z,21.79
2018-09-27T17:31:24.474Z,21.76
2018-09-27T17:33:53.837Z,21.73
2018-09-27T17:36:23.086Z,21.72
2018-09-27T17:38:52.171Z,21.69
2018-09-27T17:41:21.231Z,21.65
2018-09-27T17:43:50.404Z,21.62
2018-09-27T17:46:20.529Z,21.57
2018-09-27T17:48:49.757Z,21.52
2018-09-27T17:51:18.992Z,21.47
2018-09-27T17:53:48.507Z,21.40
2018-09-27T17:56:17.744Z,21.35
2018-09-27T17:58:47.253Z,21.30
2018-09-27T18:01:16.843Z,21.25
2018-09-27T18:03:46.660Z,21.22
2018-09-27T18:06:15.788Z,21.17
2018-09-27T18:08:44.918Z,21.11
2018-09-27T18:11:14.999Z,21.07
2018-09-27T18:13:45.033Z,21.03
2018-09-27T18:16:14.581Z,21.00
2018-09-27T18:18:44.014Z,20.96
2018-09-27T18:21:13.547Z,20.92
2018-09-27T18:23:42.797Z,20.88
2018-09-27T18:26:11.769Z,20.86
2018-09-27T18:28:40.796Z,20.83
2018-09-27T18:31:10.344Z,20.81
2018-09-27T18:33:40.005Z,20.77
2018-09-27T18:36:09.235Z,20.73
2018-09-27T18:38:38.537Z,20.72
2018-09-27T18:41:07.988Z,20.68
2018-09-27T18:43:37.295Z,20.64
2018-09-27T18:46:06.535Z,20.61
2018-09-27T18:48:35.753Z,20.56
2018-09-27T18:51:06.111Z,20.53
2018-09-27T18:53:35.436Z,20.52
2018-09-27T18:56:04.552Z,20.49
2018-09-27T18:58:34.019Z,20.46
2018-09-27T19:01:03.244Z,20.45
2018-09-27T19:03:32.278Z,20.44
2018-09-27T19:06:01.586Z,20.43
2018-09-27T19:08:31.082Z,20.43
2018-09-27T19:11:00.167Z,20.40
2018-09-27T19:13:29.295Z,20.37
2018-09-27T19:15:58.312Z,20.33
2018-09-27T19:18:27.554Z,20.29
2018-09-27T19:20:56.869Z,20.26
2018-09-27T19:23:25.966Z,20.23
2018-09-27T19:25:55.180Z,20.20
2018-09-27T19:28:24.563Z,20.20
2018-09-27T19:30:53.674Z,20.18
2018-09-27T19:33:22.740Z,20.18
2018-09-27T19:35:52.114Z,20.16
2018-09-27T19:38:21.248Z,20.15
2018-09-27T19:40:50.679Z,20.13
2018-09-27T19:43:19.712Z,20.11
2018-09-27T19:45:49.061Z,20.08
2018-09-27T19:48:18.045Z,20.06
2018-09-27T19:50:47.342Z,20.04
2018-09-27T19:53:16.460Z,20.02
2018-09-27T19:55:45.456Z,19.99
2018-09-27T19:58:14.602Z,19.98
2018-09-27T20:00:43.928Z,19.96
2018-09-27T20:03:13.292Z,19.95
2018-09-27T20:05:42.270Z,19.94
2018-09-27T20:08:11.527Z,19.92
2018-09-27T20:10:41.486Z,19.90
2018-09-27T20:13:10.736Z,19.87
2018-09-27T20:15:40.374Z,19.85
2018-09-27T20:18:09.681Z,19.81
2018-09-27T20:20:38.816Z,19.78
2018-09-27T20:23:08.212Z,19.74
2018-09-27T20:25:37.814Z,19.70
2018-09-27T20:28:07.250Z,19.68
2018-09-27T20:30:36.792Z,19.65
2018-09-27T20:33:06.740Z,19.62
2018-09-27T20:35:36.244Z,19.60
2018-09-27T20:38:06.538Z,19.57
2018-09-27T20:40:35.699Z,19.54
2018-09-27T20:43:05.120Z,19.49
2018-09-27T20:45:34.623Z,19.44
2018-09-27T20:48:03.956Z,19.40
2018-09-27T20:50:33.404Z,19.34
2018-09-27T20:53:02.763Z,19.30
2018-09-27T20:55:31.955Z,19.26
2018-09-27T20:58:01.257Z,19.24
2018-09-27T21:00:30.378Z,19.23
2018-09-27T21:02:59.641Z,19.19
2018-09-27T21:05:29.262Z,19.18
2018-09-27T21:07:58.437Z,19.14
2018-09-27T21:10:27.539Z,19.09
2018-09-27T21:12:56.877Z,19.04
2018-09-27T21:15:25.983Z,18.97
2018-09-27T21:17:55.140Z,18.93
2018-09-27T21:20:24.186Z,18.88
2018-09-27T21:22:53.434Z,18.83
2018-09-27T21:25:23.570Z,18.78
2018-09-27T21:27:53.070Z,18.73
2018-09-27T21:30:22.195Z,18.69
2018-09-27T21:32:51.558Z,18.64
2018-09-27T21:35:20.771Z,18.61
2018-09-27T21:37:50.735Z,18.59
2018-09-27T21:40:19.797Z,18.56
2018-09-27T21:42:49.204Z,18.54
2018-09-27T21:45:18.473Z,18.50
2018-09-27T21:47:47.768Z,18.45
2018-09-27T21:50:17.301Z,18.42
2018-09-27T21:52:47.053Z,18.36
2018-09-27T21:55:16.138Z,18.34
2018-09-27T21:57:45.710Z,18.31
2018-09-27T22:00:15.114Z,18.27
2018-09-27T22:02:44.279Z,18.23
2018-09-27T22:05:13.287Z,18.19
2018-09-27T22:07:42.509Z,18.16
2018-09-27T22:10:11.572Z,18.10
2018-09-27T22:12:40.596Z,18.03
2018-09-27T22:15:09.685Z,17.98
2018-09-27T22:17:38.851Z,17.92
2018-09-27T22:20:08.445Z,17.87
2018-09-27T22:22:37.617Z,17.82
2018-09-27T22:25:06.615Z,17.77
2018-09-27T22:27:35.912Z,17.73
2018-09-27T22:30:05.525Z,17.69
2018-09-27T22:32:34.644Z,17.65
2018-09-27T22:35:03.864Z,17.62
2018-09-27T22:37:33.087Z,17.60
2018-09-27T22:40:02.359Z,17.56
2018-09-27T22:42:31.465Z,17.51
2018-09-27T22:45:00.871Z,17.45
2018-09-27T22:47:29.980Z,17.40
2018-09-27T22:49:59.255Z,17.33
2018-09-27T22:52:28.310Z,17.27
2018-09-27T22:54:57.257Z,17.21
2018-09-27T22:57:26.476Z,17.15
2018-09-27T22:59:55.856Z,17.12
2018-09-27T23:02:25.055Z,17.05
2018-09-27T23:04:54.082Z,17.04
2018-09-27T23:07:23.226Z,17.00
2018-09-27T23:09:52.618Z,16.96
2018-09-27T23:12:21.615Z,16.91
2018-09-27T23:14:50.637Z,16.88
2018-09-27T23:17:19.719Z,16.84
2018-09-27T23:19:48.843Z,16.81
2018-09-27T23:22:18.555Z,16.79
2018-09-27T23:24:47.889Z,16.76
2018-09-27T23:27:17.116Z,16.66
2018-09-27T23:29:46.380Z,16.71
2018-09-27T23:32:15.879Z,16.68
2018-09-27T23:34:45.391Z,16.69
2018-09-27T23:37:14.825Z,16.67
2018-09-27T23:39:44.676Z,16.64
2018-09-27T23:42:13.746Z,16.61
2018-09-27T23:44:42.783Z,16.59
2018-09-27T23:47:12.020Z,16.58
2018-09-27T23:49:41.316Z,16.57
2018-09-27T23:52:10.655Z,16.56
2018-09-27T23:54:39.994Z,16.54
2018-09-27T23:57:09.169Z,16.53
2018-09-27T23:59:38.642Z,16.53
